Time;durP1;ratioP1;P1;durP2;ratioP2;P2;SDS_P1;SDS_P2;PMS_P1;PMS_P2;Temp;Humidity;BMP_temperature;BMP_pressure;BME280_temperature;BME280_humidity;BME280_pressure;Samples;Min_cycle;Max_cycle;Signal;HPM_P1;HPM_P2
2023/07/19 00:00:30;;;;;;;3.03;2.15;;;;;;;15.27;100.00;101267.44;1005298;29;20041;-87
2023/07/19 00:01:04;;;;;;;3.85;1.85;;;;;;;15.24;100.00;101259.03;1005714;29;20052;-88
2023/07/19 00:01:36;;;;;;;3.50;1.83;;;;;;;15.11;100.00;101269.00;1005406;29;20120;-87
2023/07/19 00:02:09;;;;;;;2.72;2.47;;;;;;;14.87;100.00;101261.22;1005479;29;20528;-88
2023/07/19 00:02:41;;;;;;;10.55;2.38;;;;;;;14.97;100.00;101277.50;1008304;29;20049;-87
2023/07/19 00:03:12;;;;;;;17.48;2.97;;;;;;;14.90;100.00;101268.78;1012898;29;20045;-88
2023/07/19 00:03:44;;;;;;;21.45;2.40;;;;;;;14.90;100.00;101266.91;1005155;29;20052;-88
2023/07/19 00:04:15;;;;;;;14.18;5.18;;;;;;;14.87;100.00;101267.38;1006036;29;20077;-87
2023/07/19 00:04:47;;;;;;;9.10;2.83;;;;;;;14.92;100.00;101266.69;1005510;29;20056;-88
2023/07/19 00:05:19;;;;;;;9.25;2.33;;;;;;;14.88;100.00;101265.53;1003282;29;20042;-87
2023/07/19 00:05:50;;;;;;;8.98;2.30;;;;;;;14.97;100.00;101267.59;1008675;29;20052;-88
2023/07/19 00:06:23;;;;;;;6.57;2.60;;;;;;;14.94;100.00;101268.06;1010560;29;20052;-87
2023/07/19 00:06:55;;;;;;;6.38;2.55;;;;;;;14.86;100.00;101276.47;1012921;29;20044;-87
2023/07/19 00:07:27;;;;;;;6.40;2.55;;;;;;;14.75;100.00;101274.59;1001339;29;20049;-87
2023/07/19 00:07:58;;;;;;;2.55;1.65;;;;;;;14.58;100.00;101271.00;1005162;29;20049;-87
2023/07/19 00:08:30;;;;;;;6.20;1.88;;;;;;;14.45;100.00;101262.09;1007057;29;20041;-87
2023/07/19 00:09:02;;;;;;;2.92;2.28;;;;;;;14.45;100.00;101272.00;1002701;29;20146;-87
2023/07/19 00:09:34;;;;;;;10.60;2.63;;;;;;;14.67;100.00;101270.41;1007664;29;20558;-87
2023/07/19 00:10:06;;;;;;;4.60;1.98;;;;;;;14.64;100.00;101270.06;1003393;29;20049;-87
2023/07/19 00:10:38;;;;;;;2.65;2.38;;;;;;;14.67;100.00;101266.91;1008428;29;20143;-87
2023/07/19 00:11:09;;;;;;;6.28;1.70;;;;;;;14.73;100.00;101271.34;1001524;29;20049;-87
2023/07/19 00:11:41;;;;;;;2.42;2.00;;;;;;;14.79;100.00;101265.03;1009621;29;20049;-88
2023/07/19 00:12:12;;;;;;;1.58;1.42;;;;;;;14.79;100.00;101271.25;1004937;29;20042;-87
2023/07/19 00:12:44;;;;;;;2.33;1.70;;;;;;;14.79;100.00;101265.88;1004274;29;20550;-87
2023/07/19 00:13:27;;;;;;;5.80;1.85;;;;;;;14.87;100.00;101269.25;1009045;29;20044;-88
2023/07/19 00:13:58;;;;;;;2.83;1.98;;;;;;;14.97;100.00;101262.22;1000254;29;20046;-87
2023/07/19 00:14:30;;;;;;;3.47;1.83;;;;;;;14.97;100.00;101262.22;1001512;29;20463;-87
2023/07/19 00:15:02;;;;;;;1.92;1.67;;;;;;;14.94;100.00;101262.72;1004956;29;20057;-87
2023/07/19 00:15:33;;;;;;;6.57;2.25;;;;;;;15.13;100.00;101264.22;1001064;29;20057;-87
2023/07/19 00:16:09;;;;;;;2.78;2.05;;;;;;;15.12;100.00;101262.59;1005043;29;20045;-87
2023/07/19 00:16:40;;;;;;;3.22;1.90;;;;;;;15.21;100.00;101264.91;1009071;29;20041;-88
2023/07/19 00:17:12;;;;;;;5.50;1.90;;;;;;;15.22;100.00;101258.47;1001254;29;20046;-88
2023/07/19 00:17:44;;;;;;;3.67;1.98;;;;;;;15.10;100.00;101262.00;1004909;29;20134;-87
2023/07/19 00:18:16;;;;;;;2.25;2.05;;;;;;;14.99;100.00;101264.69;1004877;29;20538;-87
2023/07/19 00:18:47;;;;;;;4.00;2.40;;;;;;;14.96;100.00;101265.97;1004959;29;20041;-87
2023/07/19 00:19:19;;;;;;;2.80;2.20;;;;;;;14.78;100.00;101264.22;997271;29;20065;-88
2023/07/19 00:19:52;;;;;;;2.40;1.75;;;;;;;14.54;100.00;101259.94;1005391;29;20056;-88
2023/07/19 00:20:23;;;;;;;2.55;1.88;;;;;;;14.51;100.00;101261.19;1003638;29;20049;-88
2023/07/19 00:20:55;;;;;;;4.35;1.75;;;;;;;14.48;100.00;101267.00;997605;29;20043;-88
2023/07/19 00:21:26;;;;;;;3.33;2.30;;;;;;;14.44;100.00;101257.78;1002118;29;20046;-87
2023/07/19 00:21:58;;;;;;;2.72;1.65;;;;;;;14.41;100.00;101268.94;1002721;29;20046;-87
2023/07/19 00:22:31;;;;;;;2.55;2.15;;;;;;;14.38;100.00;101258.69;1004969;29;20041;-88
2023/07/19 00:23:02;;;;;;;2.40;2.10;;;;;;;14.47;100.00;101268.06;1004721;29;20049;-87
2023/07/19 00:23:34;;;;;;;3.40;2.00;;;;;;;14.61;100.00;101263.31;1006691;29;20052;-87
2023/07/19 00:24:06;;;;;;;3.00;2.28;;;;;;;14.85;100.00;101264.13;1009214;29;20132;-87
2023/07/19 00:24:38;;;;;;;2.95;2.10;;;;;;;14.97;100.00;101256.88;1008808;29;20053;-88
2023/07/19 00:25:09;;;;;;;3.80;1.95;;;;;;;15.01;100.00;101262.56;1013013;29;20036;-87
2023/07/19 00:25:41;;;;;;;2.22;2.00;;;;;;;15.02;100.00;101265.03;1008943;29;20435;-87
2023/07/19 00:26:12;;;;;;;2.33;1.73;;;;;;;14.75;100.00;101264.69;1004682;29;20424;-88
2023/07/19 00:26:45;;;;;;;3.15;2.20;;;;;;;14.62;100.00;101254.22;1004949;29;20049;-88
2023/07/19 00:27:17;;;;;;;2.38;2.17;;;;;;;14.88;100.00;101257.47;1001210;29;20076;-88
2023/07/19 00:27:49;;;;;;;2.67;2.47;;;;;;;15.01;100.00;101254.53;1004966;29;20045;-88
2023/07/19 00:28:20;;;;;;;7.78;2.85;;;;;;;15.07;100.00;101254.44;1008388;29;20144;-88
2023/07/19 00:28:52;;;;;;;2.72;2.30;;;;;;;14.99;100.00;101249.41;1008513;29;20045;-87
2023/07/19 00:29:27;;;;;;;4.03;2.22;;;;;;;14.78;100.00;101253.50;1012590;29;20041;-87
2023/07/19 00:29:58;;;;;;;4.97;2.00;;;;;;;14.48;100.00;101248.25;1005025;29;20068;-87
2023/07/19 00:30:30;;;;;;;2.65;1.67;;;;;;;14.36;100.00;101255.44;1001230;29;20171;-87
2023/07/19 00:31:03;;;;;;;4.45;2.15;;;;;;;14.16;100.00;101250.38;1009033;29;20049;-88
2023/07/19 00:31:35;;;;;;;8.18;1.92;;;;;;;14.07;100.00;101257.13;1008629;29;20082;-88
2023/07/19 00:32:07;;;;;;;2.40;1.50;;;;;;;14.06;100.00;101254.66;1004958;29;20089;-88
2023/07/19 00:32:38;;;;;;;1.98;1.85;;;;;;;14.06;100.00;101247.44;1004916;29;20045;-87
2023/07/19 00:33:10;;;;;;;2.13;1.95;;;;;;;14.19;100.00;101249.91;1008906;29;20041;-88
2023/07/19 00:33:41;;;;;;;2.67;1.77;;;;;;;14.16;100.00;101255.75;1005289;29;20060;-87
2023/07/19 00:34:13;;;;;;;2.03;1.73;;;;;;;14.06;100.00;101255.50;1007495;29;20196;-87
2023/07/19 00:34:46;;;;;;;3.67;2.17;;;;;;;14.23;100.00;101259.13;1008660;29;20132;-87
2023/07/19 00:35:19;;;;;;;2.25;2.13;;;;;;;14.15;100.00;101255.97;1008878;29;20067;-88
2023/07/19 00:35:51;;;;;;;2.60;1.85;;;;;;;14.34;100.00;101262.06;1009122;29;20041;-88
2023/07/19 00:36:23;;;;;;;3.80;2.47;;;;;;;14.38;100.00;101253.34;1004907;29;20222;-88
2023/07/19 00:36:55;;;;;;;3.83;2.55;;;;;;;14.51;100.00;101258.50;1012415;29;20047;-88
2023/07/19 00:37:26;;;;;;;2.88;2.13;;;;;;;14.64;100.00;101253.97;1004394;29;20042;-87
2023/07/19 00:37:58;;;;;;;2.03;1.60;;;;;;;14.77;100.00;101256.41;1009224;29;20040;-88
2023/07/19 00:38:30;;;;;;;1.98;1.85;;;;;;;14.84;100.00;101259.81;1004765;29;20056;-88
2023/07/19 00:39:03;;;;;;;2.83;2.25;;;;;;;15.00;100.00;101261.75;1009235;29;20085;-87
2023/07/19 00:39:34;;;;;;;3.05;2.25;;;;;;;15.07;100.00;101251.75;1008903;29;20499;-88
2023/07/19 00:40:06;;;;;;;3.72;2.47;;;;;;;15.05;100.00;101259.19;1008871;29;20045;-88
2023/07/19 00:40:38;;;;;;;2.30;2.17;;;;;;;15.02;100.00;101253.47;1008850;29;20503;-88
2023/07/19 00:41:10;;;;;;;2.00;1.88;;;;;;;14.88;100.00;101257.47;1012867;29;20048;-87
2023/07/19 00:41:41;;;;;;;2.67;2.47;;;;;;;15.16;100.00;101254.88;1004686;29;20052;-87
2023/07/19 00:42:13;;;;;;;2.65;2.20;;;;;;;15.11;100.00;101252.09;1004821;29;20053;-87
2023/07/19 00:42:45;;;;;;;4.85;2.10;;;;;;;15.18;100.00;101251.94;1008634;29;20535;-88
2023/07/19 00:43:19;;;;;;;5.93;2.55;;;;;;;15.36;100.00;101254.50;1007875;29;20049;-88
2023/07/19 00:43:51;;;;;;;1.85;1.75;;;;;;;15.40;100.00;101250.28;997179;29;20073;-88
2023/07/19 00:44:22;;;;;;;3.83;2.33;;;;;;;15.28;100.00;101246.78;1007489;29;20041;-87
2023/07/19 00:44:54;;;;;;;6.70;2.83;;;;;;;15.14;100.00;101248.94;1009001;29;20085;-87
2023/07/19 00:45:26;;;;;;;2.50;2.30;;;;;;;15.09;100.00;101243.47;1005296;29;20046;-87
2023/07/19 00:45:58;;;;;;;2.22;1.90;;;;;;;14.88;100.00;101246.75;1005051;29;20097;-88
2023/07/19 00:46:29;;;;;;;3.05;1.90;;;;;;;14.81;100.00;101241.50;1012528;29;20416;-87
2023/07/19 00:47:02;;;;;;;2.35;2.15;;;;;;;14.89;100.00;101243.00;1016203;29;20044;-88
2023/07/19 00:47:35;;;;;;;4.20;2.63;;;;;;;14.89;100.00;101237.66;1000858;29;20057;-87
2023/07/19 00:48:07;;;;;;;2.65;2.03;;;;;;;14.90;100.00;101240.09;1008788;29;20115;-87
2023/07/19 00:48:40;;;;;;;4.72;2.67;;;;;;;14.92;100.00;101238.00;1005213;29;20408;-88
2023/07/19 00:49:13;;;;;;;6.53;2.25;;;;;;;14.94;100.00;101249.28;1000705;29;20087;-87
2023/07/19 00:49:44;;;;;;;5.13;3.03;;;;;;;15.27;100.00;101245.97;1004742;29;20097;-88
2023/07/19 00:50:17;;;;;;;4.35;1.92;;;;;;;15.36;100.00;101235.69;1008606;29;20128;-87
2023/07/19 00:50:50;;;;;;;2.80;2.58;;;;;;;15.30;100.00;101244.69;1008600;29;20070;-87
2023/07/19 00:51:22;;;;;;;4.68;2.75;;;;;;;14.97;100.00;101235.41;1008727;29;20045;-88
2023/07/19 00:51:56;;;;;;;2.53;2.33;;;;;;;14.94;100.00;101246.63;1008735;29;20049;-87
2023/07/19 00:52:27;;;;;;;6.63;1.95;;;;;;;14.82;100.00;101232.41;1012382;29;20052;-87
2023/07/19 00:52:59;;;;;;;6.93;2.53;;;;;;;14.66;100.00;101239.28;1004936;29;20045;-87
2023/07/19 00:53:31;;;;;;;5.60;2.85;;;;;;;14.83;100.00;101239.41;997290;29;20054;-87
2023/07/19 00:54:04;;;;;;;2.63;1.88;;;;;;;14.89;100.00;101237.66;1001532;29;20166;-87
2023/07/19 00:54:36;;;;;;;2.00;1.90;;;;;;;15.07;100.00;101232.97;1005150;29;20041;-87
2023/07/19 00:55:09;;;;;;;6.82;1.88;;;;;;;15.01;100.00;101241.13;1001091;29;20128;-87
2023/07/19 00:55:41;;;;;;;2.38;1.88;;;;;;;15.12;100.00;101237.63;1004961;29;20046;-87
2023/07/19 00:56:13;;;;;;;5.90;3.20;;;;;;;15.21;100.00;101235.38;1009501;29;20108;-87
2023/07/19 00:56:45;;;;;;;3.95;2.00;;;;;;;15.18;100.00;101230.47;1008657;29;20056;-87
2023/07/19 00:57:17;;;;;;;3.47;2.22;;;;;;;15.33;100.00;101238.81;1008703;29;20085;-87
2023/07/19 00:57:49;;;;;;;5.72;2.00;;;;;;;15.19;100.00;101237.47;1009272;29;20045;-87
2023/07/19 00:58:23;;;;;;;3.05;1.98;;;;;;;15.18;100.00;101236.66;1009164;29;20143;-87
2023/07/19 00:58:55;;;;;;;2.88;2.40;;;;;;;15.07;100.00;101235.66;1013201;29;20056;-87
2023/07/19 00:59:27;;;;;;;2.42;1.80;;;;;;;14.93;100.00;101230.75;1008615;29;20049;-88
2023/07/19 00:59:59;;;;;;;1.77;1.67;;;;;;;14.96;100.00;101233.78;1002175;29;20086;-87
2023/07/19 01:00:31;;;;;;;1.77;1.67;;;;;;;15.05;100.00;101236.91;1005213;29;20535;-87
2023/07/19 01:01:05;;;;;;;1.77;1.67;;;;;;;14.94;100.00;101233.19;1008929;29;20049;-87
2023/07/19 01:01:37;;;;;;;7.00;2.10;;;;;;;14.93;100.00;101230.75;997675;29;20125;-87
2023/07/19 01:02:09;;;;;;;2.30;2.10;;;;;;;14.82;100.00;101233.22;1008955;29;20558;-87
2023/07/19 01:02:43;;;;;;;2.85;2.35;;;;;;;14.92;100.00;101231.81;1013392;29;20126;-87
2023/07/19 01:03:15;;;;;;;2.10;1.83;;;;;;;14.97;100.00;101229.22;1007817;29;20131;-87
2023/07/19 01:03:47;;;;;;;6.15;2.33;;;;;;;14.94;100.00;101230.53;1015347;29;20040;-88
2023/07/19 01:04:18;;;;;;;2.83;1.95;;;;;;;14.94;100.00;101230.53;1004759;29;20097;-88
2023/07/19 01:04:50;;;;;;;6.03;2.10;;;;;;;14.90;100.00;101234.72;1004841;29;20053;-87
2023/07/19 01:05:22;;;;;;;7.03;1.90;;;;;;;14.66;100.00;101231.25;1008756;29;20052;-87
2023/07/19 01:05:57;;;;;;;5.00;2.00;;;;;;;14.55;100.00;101232.06;1005249;29;20041;-88
2023/07/19 01:06:29;;;;;;;1.83;1.67;;;;;;;14.27;100.00;101230.03;1005763;29;20049;-87
2023/07/19 01:07:04;;;;;;;2.05;1.73;;;;;;;14.17;100.00;101229.75;1004250;29;20068;-87
2023/07/19 01:07:37;;;;;;;3.20;2.00;;;;;;;14.08;100.00;101228.47;997807;29;20082;-87
2023/07/19 01:08:09;;;;;;;3.45;1.70;;;;;;;13.97;100.00;101229.25;1004421;29;20060;-87
2023/07/19 01:08:41;;;;;;;2.03;1.77;;;;;;;13.87;100.00;101230.63;1004405;29;20555;-87
2023/07/19 01:09:13;;;;;;;4.75;2.85;;;;;;;13.83;100.00;101240.16;1004320;29;20044;-87
2023/07/19 01:09:45;;;;;;;6.10;1.90;;;;;;;13.80;100.00;101229.91;1012010;29;20052;-87
2023/07/19 01:10:16;;;;;;;2.92;2.13;;;;;;;13.77;100.00;101235.72;1008185;29;20555;-87
2023/07/19 01:10:49;;;;;;;5.28;1.88;;;;;;;13.78;100.00;101237.34;1008330;29;20050;-87
2023/07/19 01:11:22;;;;;;;2.47;2.20;;;;;;;13.73;100.00;101234.53;1011745;29;20166;-87
2023/07/19 01:11:54;;;;;;;2.70;2.28;;;;;;;13.76;100.00;101236.75;1012008;29;20438;-87
2023/07/19 01:12:26;;;;;;;7.03;2.30;;;;;;;13.84;100.00;101235.63;1004286;29;20139;-88
2023/07/19 01:13:04;;;;;;;4.03;2.25;;;;;;;13.89;100.00;101233.88;1001748;29;20042;-88
2023/07/19 01:13:36;;;;;;;3.50;2.38;;;;;;;13.85;100.00;101231.91;1004004;29;20138;-88
2023/07/19 01:14:08;;;;;;;4.05;2.05;;;;;;;13.98;100.00;101228.22;1007996;29;20177;-85
2023/07/19 01:14:39;;;;;;;6.07;2.92;;;;;;;13.96;100.00;101222.25;1000417;29;20439;-87
2023/07/19 01:15:11;;;;;;;2.70;1.83;;;;;;;14.26;100.00;101228.41;1004137;29;20037;-88
2023/07/19 01:15:43;;;;;;;2.55;2.25;;;;;;;14.37;100.00;101229.44;1007712;29;20064;-88
2023/07/19 01:16:14;;;;;;;4.00;2.50;;;;;;;14.43;100.00;101223.19;1004116;29;20425;-87
2023/07/19 01:16:46;;;;;;;3.75;2.30;;;;;;;14.16;100.00;101220.91;1004746;29;20118;-87
2023/07/19 01:17:17;;;;;;;4.00;1.80;;;;;;;14.13;100.00;101225.91;1001028;29;20089;-87
2023/07/19 01:17:49;;;;;;;2.55;2.30;;;;;;;14.31;100.00;101220.47;1000563;29;20144;-87
2023/07/19 01:18:23;;;;;;;3.05;2.40;;;;;;;14.28;100.00;101217.44;1000241;29;20053;-87
2023/07/19 01:18:55;;;;;;;4.38;2.45;;;;;;;14.48;100.00;101218.75;1004059;29;20045;-87
2023/07/19 01:19:27;;;;;;;2.80;1.90;;;;;;;14.62;100.00;101221.22;1003615;29;20504;-87
2023/07/19 01:19:58;;;;;;;4.75;2.42;;;;;;;14.73;100.00;101217.72;1007693;29;20045;-87
2023/07/19 01:20:30;;;;;;;4.82;2.28;;;;;;;14.88;100.00;101219.91;1007573;29;20139;-87
2023/07/19 01:21:02;;;;;;;3.75;2.38;;;;;;;14.95;100.00;101221.41;1004269;29;20068;-87
2023/07/19 01:21:55;;;;;;;5.05;2.20;;;;;;;15.15;100.00;101211.13;1004023;29;20111;-87
2023/07/19 01:22:31;;;;;;;4.25;2.70;;;;;;;15.19;100.00;101213.31;1010867;29;20519;-87
2023/07/19 01:23:03;;;;;;;4.88;2.42;;;;;;;14.94;100.00;101202.88;1010992;29;20048;-87
2023/07/19 01:23:35;;;;;;;3.55;2.67;;;;;;;14.70;100.00;101202.09;1004150;29;20041;-87
2023/07/19 01:24:06;;;;;;;9.43;3.53;;;;;;;14.79;100.00;101200.66;992257;29;20058;-87
2023/07/19 01:24:41;;;;;;;5.65;2.50;;;;;;;14.98;100.00;101199.47;1000129;29;20053;-87
2023/07/19 01:25:12;;;;;;;6.15;2.38;;;;;;;15.06;100.00;101201.78;1007411;29;20056;-87
2023/07/19 01:25:44;;;;;;;6.97;3.40;;;;;;;15.11;100.00;101204.59;1008094;29;20558;-87
2023/07/19 01:26:16;;;;;;;3.17;2.38;;;;;;;15.11;100.00;101196.56;1004120;29;20105;-87
2023/07/19 01:26:48;;;;;;;2.42;2.22;;;;;;;15.20;100.00;101196.16;997749;29;20148;-87
2023/07/19 01:27:21;;;;;;;8.23;2.38;;;;;;;15.19;100.00;101195.34;1002186;29;20093;-87
2023/07/19 01:27:54;;;;;;;5.32;2.30;;;;;;;14.93;100.00;101191.34;1006076;29;20141;-87
2023/07/19 01:28:26;;;;;;;5.18;2.75;;;;;;;14.95;100.00;101193.78;1003835;29;20046;-87
2023/07/19 01:28:57;;;;;;;3.47;1.90;;;;;;;14.83;100.00;101193.81;1003696;29;20049;-87
2023/07/19 01:29:29;;;;;;;1.98;1.77;;;;;;;14.93;100.00;101188.66;1004128;29;20085;-87
2023/07/19 01:30:01;;;;;;;6.63;3.22;;;;;;;14.98;100.00;101194.13;1003955;29;20052;-87
2023/07/19 01:30:33;;;;;;;6.18;2.60;;;;;;;14.99;100.00;101200.31;1003781;29;20535;-87
2023/07/19 01:31:05;;;;;;;5.70;2.30;;;;;;;15.03;100.00;101196.91;1004049;29;20140;-87
2023/07/19 01:31:38;;;;;;;4.65;2.13;;;;;;;15.08;100.00;101191.66;1000042;29;20575;-88
2023/07/19 01:32:10;;;;;;;4.00;2.17;;;;;;;15.00;100.00;101183.97;1004671;29;20073;-87
2023/07/19 01:32:42;;;;;;;6.13;2.70;;;;;;;14.89;100.00;101184.00;1006877;29;20059;-87
2023/07/19 01:33:13;;;;;;;2.40;2.00;;;;;;;14.76;100.00;101185.88;1004141;29;20058;-87
2023/07/19 01:34:04;;;;;;;2.33;2.08;;;;;;;14.62;100.00;101183.69;1003852;29;20128;-87
2023/07/19 01:34:36;;;;;;;3.28;2.28;;;;;;;14.82;100.00;101189.50;1000129;29;20409;-87
2023/07/19 01:35:08;;;;;;;2.50;1.85;;;;;;;14.90;100.00;101186.44;1004098;29;20071;-87
2023/07/19 01:35:40;;;;;;;4.82;2.95;;;;;;;15.00;100.00;101186.66;1007896;29;20069;-87
2023/07/19 01:36:11;;;;;;;6.95;2.70;;;;;;;15.06;100.00;101185.69;1003951;29;20061;-87
2023/07/19 01:36:43;;;;;;;4.13;2.15;;;;;;;15.14;100.00;101182.66;996824;29;20045;-87
2023/07/19 01:37:15;;;;;;;6.15;2.55;;;;;;;14.98;100.00;101180.72;1005719;29;20053;-87
2023/07/19 01:37:46;;;;;;;2.53;2.40;;;;;;;14.65;100.00;101185.91;1003507;29;20071;-87
2023/07/19 01:38:18;;;;;;;2.80;2.60;;;;;;;14.87;100.00;101175.38;1004021;29;20056;-87
2023/07/19 01:38:50;;;;;;;3.05;2.35;;;;;;;14.80;100.00;101175.50;1004201;29;20544;-87
2023/07/19 01:39:21;;;;;;;2.72;2.40;;;;;;;14.79;100.00;101173.84;1003382;29;20052;-87
2023/07/19 01:39:53;;;;;;;2.88;2.25;;;;;;;14.89;100.00;101179.44;1004176;29;20045;-87
2023/07/19 01:40:25;;;;;;;2.80;2.40;;;;;;;14.90;100.00;101181.09;1004198;29;20420;-87
2023/07/19 01:40:56;;;;;;;2.70;2.50;;;;;;;15.01;100.00;101174.88;1003215;29;20033;-86
2023/07/19 01:41:28;;;;;;;4.38;2.75;;;;;;;14.92;100.00;101173.63;998793;29;20054;-87
2023/07/19 01:42:00;;;;;;;6.63;2.95;;;;;;;15.02;100.00;101173.81;1008009;29;20060;-87
2023/07/19 01:42:31;;;;;;;2.95;2.75;;;;;;;14.83;100.00;101175.03;1000638;29;20042;-87
2023/07/19 01:43:04;;;;;;;2.92;2.65;;;;;;;14.74;100.00;101179.13;1003327;29;20037;-87
2023/07/19 01:43:35;;;;;;;4.13;2.85;;;;;;;14.44;100.00;101177.38;1007053;29;20041;-87
2023/07/19 01:44:07;;;;;;;3.35;3.00;;;;;;;14.71;100.00;101176.91;1011895;29;20068;-87
2023/07/19 01:44:40;;;;;;;4.75;2.40;;;;;;;14.80;100.00;101179.00;1008235;29;20463;-87
2023/07/19 01:45:11;;;;;;;2.75;2.55;;;;;;;14.88;100.00;101177.00;1004101;29;20154;-87
2023/07/19 01:45:43;;;;;;;5.13;2.80;;;;;;;14.83;100.00;101186.59;1010696;29;20084;-87
2023/07/19 01:46:14;;;;;;;2.72;2.50;;;;;;;14.65;100.00;101183.22;1011451;29;20062;-87
2023/07/19 01:46:46;;;;;;;4.95;3.03;;;;;;;14.79;100.00;101179.22;1004254;29;20084;-87
2023/07/19 01:47:18;;;;;;;3.90;2.55;;;;;;;14.86;100.00;101190.66;1007761;29;20109;-87
2023/07/19 01:47:49;;;;;;;4.63;2.60;;;;;;;14.79;100.00;101181.91;1008287;29;20100;-87
2023/07/19 01:48:21;;;;;;;5.10;2.72;;;;;;;14.66;100.00;101190.22;1007703;29;20049;-88
2023/07/19 01:48:53;;;;;;;3.97;3.67;;;;;;;14.67;100.00;101184.59;1004182;29;20385;-87
2023/07/19 01:49:24;;;;;;;4.47;2.35;;;;;;;14.75;100.00;101186.09;1013093;29;20055;-88
2023/07/19 01:49:57;;;;;;;6.95;3.17;;;;;;;14.74;100.00;101184.47;1009851;29;20033;-87
2023/07/19 01:50:29;;;;;;;3.30;3.00;;;;;;;14.80;100.00;101188.91;1004178;29;20048;-87
2023/07/19 01:51:02;;;;;;;5.10;2.83;;;;;;;14.79;100.00;101192.63;1007545;29;20060;-87
2023/07/19 01:51:34;;;;;;;4.18;2.80;;;;;;;14.71;100.00;101176.91;1008110;29;20041;-87
2023/07/19 01:52:06;;;;;;;4.47;2.78;;;;;;;14.87;100.00;101186.91;1006197;29;20162;-87
2023/07/19 01:52:38;;;;;;;2.53;2.33;;;;;;;14.94;100.00;101190.28;1006466;29;20056;-88
2023/07/19 01:53:10;;;;;;;5.07;2.90;;;;;;;14.80;100.00;101194.28;1000491;29;20561;-87
2023/07/19 01:53:41;;;;;;;4.22;3.28;;;;;;;14.70;100.00;101188.69;1003585;29;20056;-87
2023/07/19 01:54:13;;;;;;;4.05;2.78;;;;;;;14.68;100.00;101188.91;1000361;29;20054;-87
2023/07/19 01:54:46;;;;;;;5.80;2.75;;;;;;;14.79;100.00;101188.09;1010097;29;20124;-87
2023/07/19 01:55:17;;;;;;;4.72;2.95;;;;;;;14.62;100.00;101189.03;1001445;29;20053;-87
2023/07/19 01:55:49;;;;;;;4.65;3.10;;;;;;;14.75;100.00;101194.16;1004409;29;20436;-87
2023/07/19 01:56:21;;;;;;;9.25;2.88;;;;;;;14.88;100.00;101188.56;1005487;29;20567;-87
2023/07/19 01:56:52;;;;;;;4.25;3.17;;;;;;;14.77;100.00;101186.69;997957;29;20048;-87
2023/07/19 01:57:24;;;;;;;5.00;3.22;;;;;;;14.90;100.00;101197.19;1000167;29;20497;-88
2023/07/19 01:57:56;;;;;;;3.50;3.15;;;;;;;14.90;100.00;101188.31;1004023;29;20475;-87
2023/07/19 01:58:27;;;;;;;3.30;3.00;;;;;;;14.73;100.00;101188.22;1004681;29;20508;-87
2023/07/19 01:58:59;;;;;;;3.67;3.13;;;;;;;14.78;100.00;101188.31;1007360;29;20055;-87
2023/07/19 01:59:31;;;;;;;3.30;2.90;;;;;;;14.66;100.00;101190.22;1003269;29;20053;-87
2023/07/19 02:00:04;;;;;;;3.78;2.65;;;;;;;14.60;100.00;101185.78;1007663;29;20436;-88
2023/07/19 02:00:46;;;;;;;5.43;3.08;;;;;;;14.63;100.00;101185.31;1004201;29;20057;-87
2023/07/19 02:01:17;;;;;;;4.90;3.58;;;;;;;14.59;100.00;101187.66;1000157;29;20450;-87
2023/07/19 02:01:50;;;;;;;4.03;3.63;;;;;;;14.61;100.00;101187.41;1000052;29;20054;-88
2023/07/19 02:02:22;;;;;;;6.15;3.85;;;;;;;14.76;100.00;101190.41;1003290;29;20046;-87
2023/07/19 02:02:54;;;;;;;5.35;2.80;;;;;;;14.71;100.00;101185.75;1005712;29;20625;-87
2023/07/19 02:03:27;;;;;;;6.82;3.50;;;;;;;14.61;100.00;101182.88;1004034;29;20056;-87
2023/07/19 02:03:58;;;;;;;5.28;3.20;;;;;;;14.56;100.00;101184.63;1004013;29;20049;-87
2023/07/19 02:04:30;;;;;;;4.15;3.15;;;;;;;14.52;100.00;101179.75;996269;29;20076;-87
2023/07/19 02:05:02;;;;;;;5.65;3.17;;;;;;;14.52;100.00;101179.75;1000025;29;20073;-87
2023/07/19 02:05:34;;;;;;;3.83;3.50;;;;;;;14.49;100.00;101182.84;1000814;29;20529;-87
2023/07/19 02:06:06;;;;;;;3.35;3.08;;;;;;;14.52;100.00;101179.75;1007868;29;20124;-87
2023/07/19 02:06:37;;;;;;;5.28;3.55;;;;;;;14.53;100.00;101181.38;1004177;29;20053;-88
2023/07/19 02:07:09;;;;;;;5.15;3.05;;;;;;;14.58;100.00;101177.16;1004033;29;20497;-87
2023/07/19 02:07:40;;;;;;;6.30;3.25;;;;;;;14.61;100.00;101176.69;1000279;29;20046;-87
2023/07/19 02:08:12;;;;;;;4.00;2.75;;;;;;;14.61;100.00;101182.06;1004136;29;20041;-87
2023/07/19 02:08:43;;;;;;;7.25;3.70;;;;;;;14.58;100.00;101177.97;1007856;29;20044;-87
2023/07/19 02:09:15;;;;;;;4.10;2.83;;;;;;;14.52;100.00;101185.09;1011533;29;20420;-87
2023/07/19 02:09:47;;;;;;;3.15;2.85;;;;;;;14.66;100.00;101184.84;1011630;29;20045;-87
2023/07/19 02:10:18;;;;;;;8.07;3.22;;;;;;;14.58;100.00;101187.88;1007707;29;20129;-87
2023/07/19 02:10:51;;;;;;;3.85;3.55;;;;;;;14.56;100.00;101180.09;1004073;29;20104;-87
2023/07/19 02:11:22;;;;;;;5.82;3.05;;;;;;;14.61;100.00;101180.19;1000255;29;20057;-88
2023/07/19 02:11:55;;;;;;;5.18;3.53;;;;;;;14.54;100.00;101187.53;1011839;29;20045;-87
2023/07/19 02:12:27;;;;;;;5.95;3.63;;;;;;;14.32;100.00;101179.22;1011356;29;20562;-88
2023/07/19 02:12:58;;;;;;;5.93;2.80;;;;;;;14.41;100.00;101182.38;1000188;29;20045;-87
2023/07/19 02:13:30;;;;;;;5.50;3.03;;;;;;;14.03;100.00;101186.31;997994;29;20046;-87
2023/07/19 02:14:03;;;;;;;4.13;2.92;;;;;;;13.93;100.00;101184.19;1007650;29;20135;-87
2023/07/19 02:14:36;;;;;;;2.35;2.15;;;;;;;14.07;100.00;101186.66;1007983;29;20072;-88
2023/07/19 02:15:08;;;;;;;4.32;2.63;;;;;;;14.18;100.00;101183.16;1004121;29;20050;-87
2023/07/19 02:15:41;;;;;;;2.78;2.50;;;;;;;14.24;100.00;101187.59;1004116;29;20604;-87
2023/07/19 02:16:13;;;;;;;3.28;2.97;;;;;;;14.23;100.00;101188.63;1005404;29;20775;-87
2023/07/19 02:16:46;;;;;;;2.28;2.08;;;;;;;14.25;100.00;101189.25;1003761;29;20902;-88
2023/07/19 02:17:18;;;;;;;2.58;2.38;;;;;;;14.22;100.00;101181.66;1009903;29;20048;-87
2023/07/19 02:17:50;;;;;;;3.97;2.63;;;;;;;14.06;100.00;101180.47;1001229;29;20041;-87
2023/07/19 02:18:22;;;;;;;3.03;2.75;;;;;;;14.04;100.00;101187.13;1011615;29;20430;-87
2023/07/19 02:18:54;;;;;;;3.28;2.35;;;;;;;14.09;100.00;101179.22;1007893;29;20049;-87
2023/07/19 02:19:25;;;;;;;3.15;2.35;;;;;;;14.21;100.00;101185.38;1004049;29;20045;-87
2023/07/19 02:19:57;;;;;;;2.90;2.55;;;;;;;14.13;100.00;101183.06;1003681;29;20061;-87
2023/07/19 02:20:29;;;;;;;4.53;2.63;;;;;;;14.16;100.00;101185.25;1000798;29;20419;-87
2023/07/19 02:21:00;;;;;;;2.38;2.17;;;;;;;14.00;100.00;101180.59;1000158;29;20046;-87
2023/07/19 02:21:33;;;;;;;2.47;2.28;;;;;;;14.10;100.00;101181.66;1003735;29;20127;-87
2023/07/19 02:22:04;;;;;;;3.30;2.90;;;;;;;14.11;100.00;101183.28;1008063;29;20407;-87
2023/07/19 02:22:37;;;;;;;6.40;2.90;;;;;;;14.03;100.00;101183.63;1004012;29;20541;-87
2023/07/19 02:23:08;;;;;;;3.03;2.70;;;;;;;14.14;100.00;101184.69;1004056;29;20060;-87
2023/07/19 02:23:40;;;;;;;5.00;2.72;;;;;;;14.25;100.00;101181.22;1007918;29;20045;-87
2023/07/19 02:24:12;;;;;;;3.17;2.88;;;;;;;14.33;100.00;101182.72;1003069;29;20130;-87
2023/07/19 02:24:44;;;;;;;2.53;2.33;;;;;;;14.23;100.00;101180.59;1002478;29;20439;-87
2023/07/19 02:25:16;;;;;;;5.80;3.13;;;;;;;14.38;100.00;101183.66;1004258;29;20052;-87
2023/07/19 02:25:51;;;;;;;3.92;2.80;;;;;;;14.36;100.00;101177.72;1000248;29;20122;-87
2023/07/19 02:26:24;;;;;;;3.25;2.95;;;;;;;14.14;100.00;101182.00;1002137;29;20133;-87
2023/07/19 02:26:56;;;;;;;4.65;3.08;;;;;;;14.10;100.00;101180.84;1005064;29;20053;-87
2023/07/19 02:27:28;;;;;;;3.05;2.80;;;;;;;14.05;100.00;101184.22;1007890;29;20049;-87
2023/07/19 02:27:59;;;;;;;3.28;2.97;;;;;;;14.19;100.00;101187.47;1004143;29;20085;-87
2023/07/19 02:28:33;;;;;;;3.03;2.83;;;;;;;14.14;100.00;101182.00;1007329;29;20185;-87